METAR Data
IDs: Format: Raw Decoded Include TAF

Data at: 1812 UTC 21 Sep 2018

KAXH 211755Z AUTO 15006KT 10SM SCT022 SCT038 BKN044 32/26 A2995 RMK AO2 LTG DSNT NE AND S T03150261 10316 20255
KAXH 211735Z AUTO 14005KT 10SM SCT095 32/27 A2996 RMK AO2 T03150265
KAXH 211715Z AUTO 16004KT 10SM BKN095 30/25 A2997 RMK AO2 LTG DSNT S T02960254
KAXH 211655Z AUTO 00000KT 10SM CLR 29/23 A2998 RMK AO2 T02930234
KAXH 211635Z AUTO 16004KT 10SM SCT021 SCT031 SCT055 29/23 A2998 RMK AO2 LTG DSNT E T02850225
KAXH 211615Z AUTO 16007KT 10SM BKN021 BKN029 BKN034 30/25 A2998 RMK AO2 T02980249
KAXH 211555Z AUTO 15007KT 10SM SCT019 SCT032 30/26 A2998 RMK AO2 T03000260
KAXH 211535Z AUTO 15007KT 10SM SCT019 SCT025 SCT032 30/26 A2998 RMK AO2 LTG DSNT E T02960258
KAXH 211515Z AUTO 16005KT 10SM BKN017 BKN022 29/26 A2998 RMK AO2 T02930260
KAXH 211455Z AUTO 13007KT 10SM BKN017 29/26 A2998 RMK AO2 T02920261
KAXH 211435Z AUTO 15005KT 10SM SCT015 29/27 A2997 RMK AO2 T02940267
KAXH 211415Z AUTO 14003KT 10SM CLR 28/26 A2997 RMK AO2 T02770264
KAXH 211355Z AUTO 13003KT 10SM CLR 27/26 A2997 RMK AO2 T02670258
KAXH 211335Z AUTO 13003KT 10SM CLR 26/26 A2997 RMK AO2 T02630255
KAXH 211315Z AUTO 12003KT 7SM -RA SCT031 SCT037 26/26 A2996 RMK AO2 LTG DSNT W T02610255
KAXH 211255Z AUTO 00000KT 7SM SCT026 SCT031 26/25 A2997 RMK AO2 T02600253
KAXH 211235Z AUTO 00000KT 10SM SCT018 SCT026 SCT038 26/25 A2996 RMK AO2 T02570251
KAXH 211215Z AUTO 13003KT 10SM SCT018 SCT024 SCT038 26/25 A2996 RMK AO2 T02560251
KAXH 211155Z AUTO 12003KT 10SM CLR 26/25 A2996 RMK AO2 60001 70006 T02550250 10258 20250
KAXH 211135Z AUTO 00000KT 10SM SCT022 SCT026 25/25 A2996 RMK AO2 T02520250
KAXH 211115Z AUTO 00000KT 10SM -DZ SCT026 SCT033 26/25 A2995 RMK AO2 T02550250
KAXH 211055Z AUTO 00000KT 10SM -DZ BKN023 BKN029 BKN034 26/25 A2994 RMK AO2 P0001 T02550251
KAXH 211035Z AUTO 00000KT 10SM RA BKN023 BKN028 BKN037 25/25 A2995 RMK AO2 P0001 T02540250
KAXH 211015Z AUTO 00000KT 10SM -RA CLR 26/25 A2994 RMK AO2 T02550250
KAXH 210955Z AUTO 00000KT 10SM CLR 26/25 A2994 RMK AO2 T02550250
KAXH 210935Z AUTO 00000KT 10SM CLR 26/25 A2994 RMK AO2 T02550250
KAXH 210915Z AUTO 00000KT 10SM CLR 26/25 A2993 RMK AO2 T02550250
KAXH 210855Z AUTO 00000KT 10SM CLR 26/25 A2993 RMK AO2 T02550248
KAXH 210835Z AUTO 00000KT 10SM CLR 26/25 A2993 RMK AO2 T02560250
KAXH 210815Z AUTO 00000KT 10SM CLR 26/25 A2993 RMK AO2 T02570248
KAXH 210755Z AUTO 00000KT 10SM -RA CLR 26/25 A2994 RMK AO2 T02580248
KAXH 210735Z AUTO 14003KT 10SM CLR 26/25 A2994 RMK AO2 T02570248
KAXH 210715Z AUTO 00000KT 10SM CLR 26/25 A2995 RMK AO2 T02550247
KAXH 210655Z AUTO 00000KT 10SM CLR 25/25 A2995 RMK AO2 T02530245
KAXH 210635Z AUTO 00000KT 10SM CLR 25/25 A2996 RMK AO2 T02520245
KAXH 210615Z AUTO 00000KT 10SM CLR 25/25 A2996 RMK AO2 T02520245
KAXH 210555Z AUTO 00000KT 10SM CLR 25/24 A2997 RMK AO2 T02500243 10280 20250
KAXH 210535Z AUTO 00000KT 10SM CLR 25/24 A2997 RMK AO2 T02510243
KAXH 210515Z AUTO 00000KT 10SM CLR 25/24 A2997 RMK AO2 T02530244
KAXH 210455Z AUTO 00000KT 10SM CLR 25/24 A2997 RMK AO2 T02530243
KAXH 210435Z AUTO 13003KT 10SM CLR 26/24 A2997 RMK AO2 T02550243
KAXH 210415Z AUTO 00000KT 10SM CLR 26/25 A2998 RMK AO2 T02550245
KAXH 210355Z AUTO 00000KT 10SM CLR 26/25 A2998 RMK AO2 T02560245
KAXH 210335Z AUTO 00000KT 10SM CLR 26/25 A2996 RMK AO2 T02560245
KAXH 210315Z AUTO 12003KT 10SM CLR 26/25 A2996 RMK AO2 T02570245
KAXH 210255Z AUTO 14003KT 10SM CLR 26/25 A2996 RMK AO2 T02580245
KAXH 210235Z AUTO 00000KT 10SM CLR 26/25 A2996 RMK AO2 T02590245
KAXH 210215Z AUTO 14003KT 10SM CLR 26/25 A2996 RMK AO2 T02600245
KAXH 210155Z AUTO 00000KT 10SM CLR 26/25 A2995 RMK AO2 T02630245
KAXH 210135Z AUTO 00000KT 10SM CLR 27/25 A2995 RMK AO2 T02660246
KAXH 210115Z AUTO 00000KT 10SM CLR 27/25 A2994 RMK AO2 T02690246
KAXH 210055Z AUTO 15004KT 10SM CLR 27/25 A2993 RMK AO2 LTG DSNT NE T02720248
KAXH 210035Z AUTO 14004KT 10SM SCT025 SCT030 27/25 A2993 RMK AO2 LTG DSNT N AND NE T02740247
KAXH 210015Z AUTO 15004KT 10SM SCT025 SCT030 28/25 A2993 RMK AO2 LTG DSNT NE T02760245
KAXH 202355Z AUTO 15004KT 10SM CLR 28/24 A2993 RMK AO2 T02800243 10321 20260
KAXH 202335Z AUTO 15005KT 10SM CLR 29/24 A2993 RMK AO2 T02850242
KAXH 202315Z AUTO 15004KT 10SM SCT030 29/24 A2992 RMK AO2 LTG DSNT N T02900242
KAXH 202255Z AUTO 15004KT 10SM SCT030 30/24 A2992 RMK AO2 LTG DSNT N AND NW T02980243
KAXH 202235Z AUTO 16009G14KT 10SM SCT032 SCT041 SCT060 30/24 A2991 RMK AO2 LTG DSNT N AND NW T02950241
KAXH 202215Z AUTO 14009KT 10SM BKN034 BKN045 BKN050 30/25 A2991 RMK AO2 T03030245
KAXH 202155Z AUTO 15006KT 10SM BKN034 BKN044 BKN070 30/25 A2991 RMK AO2 T03030248
KAXH 202135Z AUTO 15008G14KT 10SM SCT032 SCT045 31/24 A2991 RMK AO2 T03060241
KAXH 202115Z AUTO 14007KT 10SM BKN034 BKN045 32/25 A2991 RMK AO2 LTG DSNT SW T03180252
KAXH 202055Z AUTO 17006KT 10SM SCT036 SCT045 30/24 A2991 RMK AO2 LTG DSNT W THRU NE T03000243
KAXH 202035Z AUTO 17006KT 10SM SCT034 SCT040 31/24 A2992 RMK AO2 LTG DSNT N AND NE T03080241
KAXH 202015Z AUTO 16004KT 10SM SCT032 SCT041 SCT060 31/24 A2993 RMK AO2 LTG DSNT NE AND NW T03110243
KAXH 201955Z AUTO 18005KT 10SM SCT065 SCT085 30/26 A2994 RMK AO2 LTG DSNT NW T03040256
KAXH 201935Z AUTO 08003KT 10SM SCT065 29/25 A2995 RMK AO2 LTG DSNT NW THRU NE T02930254
KAXH 201915Z AUTO 08003KT 10SM -DZ SCT036 SCT046 SCT050 29/25 A2995 RMK AO2 LTG DSNT W THRU NE T02890254
KAXH 201855Z AUTO 00000KT 10SM CLR 28/25 A2995 RMK AO2 LTG DSNT NW T02750248
KAXH 201835Z AUTO 00000KT 10SM SCT027 SCT033 SCT075 27/25 A2997 RMK AO2 LTG DSNT N AND NW T02700247
KAXH 201815Z AUTO 14006KT 10SM -TSRA SCT030 SCT070 BKN085 26/24 A2999 RMK AO2 LTG DSNT NE AND SE T02610244
KAXH 201755Z AUTO 08003KT 10SM -TSRA SCT040 SCT050 OVC060 26/24 A2998 RMK AO2 LTG DSNT ALQS P0005 60005 T02590242 10303 20230
KAXH 201735Z AUTO 17006KT 4SM RA SCT029 SCT042 BKN049 27/25 A2999 RMK AO2 LTG DSNT S P0002 T02670251
KAXH 201715Z AUTO 00000KT 10SM -VCTSRA SCT041 29/25 A2999 RMK AO2 LTG DSNT NE AND SW T02900248
KAXH 201655Z AUTO 00000KT 10SM CLR 29/24 A2999 RMK AO2 LTG DSNT NE AND SW T02930243
KAXH 201635Z AUTO 19004KT 10SM VCTS CLR 29/25 A2999 RMK AO2 LTG DSNT NE AND S T02940253
KAXH 201615Z AUTO 15004KT 10SM CLR 28/25 A3000 RMK AO2 T02840253
KAXH 201555Z AUTO 12004KT 10SM SCT022 SCT029 BKN095 28/25 A3000 RMK AO2 T02790248
KAXH 201535Z AUTO 17004KT 10SM BKN022 OVC030 29/25 A3000 RMK AO2 T02870253
KAXH 201515Z AUTO 16003KT 10SM BKN020 BKN025 BKN036 30/26 A2999 RMK AO2 T03000256
KAXH 201455Z AUTO 15004KT 10SM SCT017 30/26 A2998 RMK AO2 LTG DSNT S T02950257
KAXH 201435Z AUTO 16005KT 10SM CLR 29/26 A2998 RMK AO2 T02890259
KAXH 201415Z AUTO 13003KT 10SM CLR 27/26 A2998 RMK AO2 T02700256
KAXH 201355Z AUTO 13004KT 10SM SCT021 28/26 A2998 RMK AO2 T02750256
KAXH 201335Z AUTO 00000KT 10SM BKN021 26/26 A2997 RMK AO2 T02610255
KAXH 201315Z AUTO 00000KT 7SM SCT016 25/25 A2996 RMK AO2 T02480248
KAXH 201255Z AUTO 00000KT 5SM BR SCT016 SCT021 24/24 A2996 RMK AO2 LTG DSNT SW T02410241
KAXH 201235Z AUTO 00000KT 3SM BR CLR 23/23 A2996 RMK AO2 T02340234
KAXH 201215Z AUTO 00000KT 7SM CLR 23/23 A2995 RMK AO2 T02340233
KAXH 201155Z AUTO 00000KT 7SM CLR 23/23 A2995 RMK AO2 T02340233 10240 20228
KAXH 201135Z AUTO 00000KT 7SM CLR 24/24 A2994 RMK AO2 T02360235
KAXH 201115Z AUTO 00000KT 7SM CLR 24/23 A2994 RMK AO2 T02360234
KAXH 201055Z AUTO 00000KT 10SM CLR 24/24 A2994 RMK AO2 T02400237
KAXH 201035Z AUTO 00000KT 7SM CLR 24/23 A2994 RMK AO2 T02350233
KAXH 201015Z AUTO 00000KT 10SM CLR 24/24 A2994 RMK AO2 T02380236
KAXH 200955Z AUTO 00000KT 7SM CLR 24/24 A2994 RMK AO2 T02370236
KAXH 200935Z AUTO 00000KT 10SM CLR 24/24 A2994 RMK AO2 T02360235
KAXH 200915Z AUTO 00000KT 7SM CLR 24/23 A2994 RMK AO2 T02350232
KAXH 200855Z AUTO 00000KT 10SM CLR 24/23 A2995 RMK AO2 T02350234
KAXH 200835Z AUTO 00000KT 7SM CLR 23/23 A2996 RMK AO2 T02340233
KAXH 200815Z AUTO 00000KT 10SM CLR 24/23 A2996 RMK AO2 T02360234
KAXH 200755Z AUTO 00000KT 10SM CLR 24/24 A2996 RMK AO2 T02370235
KAXH 200735Z AUTO 00000KT 10SM CLR 23/23 A2996 RMK AO2 T02320231
KAXH 200715Z AUTO 00000KT 10SM CLR 23/23 A2996 RMK AO2 T02330232
KAXH 200655Z AUTO 00000KT 7SM CLR 23/23 A2996 RMK AO2 T02310230
KAXH 200635Z AUTO 00000KT 7SM CLR 23/23 A2996 RMK AO2 T02280226
KAXH 200615Z AUTO 00000KT 10SM CLR 23/23 A2996 RMK AO2 T02330231